Time;durP1;ratioP1;P1;durP2;ratioP2;P2;SDS_P1;SDS_P2;PMS_P1;PMS_P2;Temp;Humidity;BMP_temperature;BMP_pressure;BME280_temperature;BME280_humidity;BME280_pressure;Samples;Min_cycle;Max_cycle;Signal;HPM_P1;HPM_P2
2022/02/06 00:01:16;;;;;;;;;;;;;;;22.39;26.56;100172.31;5113480;28;1955;-76
2022/02/06 00:03:42;;;;;;;;;;;;;;;22.62;26.35;100182.06;5109357;28;959;-75
2022/02/06 00:06:08;;;;;;;;;;;;;;;23.29;25.30;100173.47;5099571;22;2001;-71
2022/02/06 00:08:37;;;;;;;;;;;;;;;22.13;26.42;100174.03;5067860;28;1041;-73
2022/02/06 00:11:04;;;;;;;;;;;;;;;23.13;25.79;100161.88;5067810;28;987;-72
2022/02/06 00:13:30;;;;;;;;;;;;;;;23.27;25.71;100156.25;5067871;28;935;-73
2022/02/06 00:15:57;;;;;;;;;;;;;;;22.92;25.81;100154.72;5053140;28;1960;-73
2022/02/06 00:18:24;;;;;;;;;;;;;;;23.56;25.19;100143.72;5011968;28;1448;-72
2022/02/06 00:20:53;;;;;;;;;;;;;;;22.40;26.59;100151.91;5037864;28;1977;-70
2022/02/06 00:23:22;;;;;;;;;;;;;;;22.45;26.09;100132.75;5047415;28;829;-73
2022/02/06 00:25:57;;;;;;;;;;;;;;;24.11;24.55;100123.63;5045624;28;1398;-71
2022/02/06 00:28:35;;;;;;;;;;;;;;;23.62;24.45;100125.34;5047865;28;990;-73
2022/02/06 00:31:12;;;;;;;;;;;;;;;23.42;24.95;100111.63;5047671;28;749;-73
2022/02/06 00:33:46;;;;;;;;;;;;;;;23.56;24.57;100100.22;5047677;28;934;-71
2022/02/06 00:39:04;;;;;;;;;;;;;;;23.13;25.35;100089.91;5046145;28;931;-70
2022/02/06 00:41:32;;;;;;;;;;;;;;;22.49;25.71;100092.53;5047218;28;1926;-72
2022/02/06 00:44:02;;;;;;;;;;;;;;;22.89;25.08;100081.28;5046061;28;1226;-73
2022/02/06 00:46:31;;;;;;;;;;;;;;;22.73;25.53;100076.28;5047161;28;1318;-70
2022/02/06 00:48:59;;;;;;;;;;;;;;;23.48;24.78;100072.81;5047242;28;796;-70
2022/02/06 00:51:33;;;;;;;;;;;;;;;23.46;24.21;100066.63;5040743;28;983;-73
2022/02/06 00:54:00;;;;;;;;;;;;;;;23.61;24.05;100068.22;5032524;28;1014;-73
2022/02/06 00:56:27;;;;;;;;;;;;;;;22.66;24.66;100053.31;5032336;28;1247;-74
2022/02/06 00:58:53;;;;;;;;;;;;;;;22.87;25.04;100052.16;5032543;28;1296;-74
2022/02/06 01:01:20;;;;;;;;;;;;;;;23.93;23.63;100046.88;5033462;28;1910;-73
2022/02/06 01:03:47;;;;;;;;;;;;;;;23.13;24.29;100037.31;5033270;28;1522;-72
2022/02/06 01:06:13;;;;;;;;;;;;;;;23.73;24.02;100042.34;5033165;28;1301;-73
2022/02/06 01:08:41;;;;;;;;;;;;;;;23.86;23.57;100035.78;5016148;28;868;-70
2022/02/06 01:11:10;;;;;;;;;;;;;;;22.96;25.10;100036.13;5015865;28;1027;-73
2022/02/06 01:13:45;;;;;;;;;;;;;;;23.04;24.57;100027.56;5033648;28;956;-71
2022/02/06 01:16:18;;;;;;;;;;;;;;;23.41;23.60;100024.97;5015468;28;1301;-73
2022/02/06 01:18:52;;;;;;;;;;;;;;;22.89;24.32;100028.72;5033472;28;999;-73
2022/02/06 01:21:28;;;;;;;;;;;;;;;23.61;23.75;100010.94;5015448;28;1915;-71
2022/02/06 01:23:59;;;;;;;;;;;;;;;22.51;25.12;100012.97;5033236;28;1022;-71
2022/02/06 01:26:34;;;;;;;;;;;;;;;22.70;24.55;100013.09;5033020;28;1410;-73
2022/02/06 01:29:10;;;;;;;;;;;;;;;23.12;23.97;99998.78;5033115;28;975;-72
2022/02/06 01:31:52;;;;;;;;;;;;;;;24.48;22.72;99993.31;5032924;28;927;-73
2022/02/06 01:34:23;;;;;;;;;;;;;;;24.66;22.52;99997.16;5014850;28;1286;-73
2022/02/06 01:37:03;;;;;;;;;;;;;;;23.78;23.15;99969.59;5032985;28;1427;-71
2022/02/06 01:39:45;;;;;;;;;;;;;;;22.90;24.51;99980.63;5015175;28;1003;-71
2022/02/06 01:42:16;;;;;;;;;;;;;;;22.78;24.29;99981.56;5032832;28;817;-72
2022/02/06 01:44:54;;;;;;;;;;;;;;;23.78;23.27;99969.59;5014801;28;1299;-73
2022/02/06 02:01:16;;;;;;;;;;;;;;;23.24;24.17;99939.69;5032234;28;1981;-71
2022/02/06 02:03:50;;;;;;;;;;;;;;;22.46;25.08;99932.63;4997596;28;913;-73
2022/02/06 02:09:29;;;;;;;;;;;;;;;23.14;24.81;99919.16;5014456;28;1170;-73
2022/02/06 02:12:19;;;;;;;;;;;;;;;23.02;24.99;99910.69;5032443;28;860;-73
2022/02/06 02:15:18;;;;;;;;;;;;;;;24.70;23.76;99915.13;5014206;28;1412;-73
2022/02/06 02:18:17;;;;;;;;;;;;;;;23.02;25.00;99902.41;5014591;28;1015;-72
2022/02/06 02:24:09;;;;;;;;;;;;;;;22.88;25.48;99899.75;5109071;27;1465;-72
2022/02/06 02:26:54;;;;;;;;;;;;;;;22.08;26.24;99873.47;5109017;28;1391;-73
2022/02/06 02:32:32;;;;;;;;;;;;;;;22.78;25.53;99871.72;5108414;28;1377;-72
2022/02/06 02:43:59;;;;;;;;;;;;;;;23.62;25.89;99864.97;5110369;28;1985;-70
2022/02/06 02:46:27;;;;;;;;;;;;;;;22.92;26.05;99842.06;5106650;28;1336;-74
2022/02/06 02:48:55;;;;;;;;;;;;;;;22.53;26.62;99842.16;5108449;28;858;-72
2022/02/06 02:51:24;;;;;;;;;;;;;;;23.87;25.84;99848.25;5108341;28;804;-72
2022/02/06 02:53:56;;;;;;;;;;;;;;;24.15;25.40;99833.78;5107107;28;868;-75
2022/02/06 02:56:36;;;;;;;;;;;;;;;22.84;27.17;99829.34;5085364;28;1692;-72
2022/02/06 02:59:09;;;;;;;;;;;;;;;22.88;27.05;99824.22;5101196;28;1005;-73
2022/02/06 03:01:40;;;;;;;;;;;;;;;22.08;28.26;99817.38;5085887;28;1973;-73
2022/02/06 03:04:06;;;;;;;;;;;;;;;23.16;27.56;99826.50;5085607;28;1010;-76
2022/02/06 03:06:33;;;;;;;;;;;;;;;22.65;27.75;99811.00;5086566;28;1468;-73
2022/02/06 03:09:00;;;;;;;;;;;;;;;23.77;26.33;99814.69;5102792;28;1482;-74
2022/02/06 03:11:28;;;;;;;;;;;;;;;23.33;26.94;99800.97;5084470;28;1490;-73
2022/02/06 03:14:02;;;;;;;;;;;;;;;23.22;26.62;99795.16;5085863;28;1093;-73
2022/02/06 03:16:32;;;;;;;;;;;;;;;20.89;29.78;99787.28;5102898;28;1499;-73
2022/02/06 03:19:04;;;;;;;;;;;;;;;22.29;27.84;99784.91;5107925;28;969;-74
2022/02/06 03:21:32;;;;;;;;;;;;;;;21.89;29.22;99773.06;5109613;28;1923;-72
2022/02/06 03:24:09;;;;;;;;;;;;;;;23.17;27.23;99760.91;5128102;27;981;-72
2022/02/06 03:26:37;;;;;;;;;;;;;;;22.73;27.31;99766.50;5128407;28;1405;-73
2022/02/06 03:29:03;;;;;;;;;;;;;;;22.96;27.82;99751.97;5128346;27;1362;-72
2022/02/06 03:31:30;;;;;;;;;;;;;;;22.67;27.60;99743.34;5128365;28;728;-74
2022/02/06 03:33:56;;;;;;;;;;;;;;;22.45;28.14;99742.94;5120357;27;934;-73
2022/02/06 03:36:22;;;;;;;;;;;;;;;22.17;28.65;99743.34;5113979;28;1297;-73
2022/02/06 03:38:51;;;;;;;;;;;;;;;23.67;26.58;99746.00;5114313;28;757;-72
2022/02/06 03:41:18;;;;;;;;;;;;;;;22.27;28.35;99738.16;5113024;28;844;-73
2022/02/06 03:43:55;;;;;;;;;;;;;;;22.63;27.80;99735.72;5114069;28;1910;-73
2022/02/06 03:46:27;;;;;;;;;;;;;;;23.04;27.72;99729.53;5113729;28;1385;-73
2022/02/06 03:49:01;;;;;;;;;;;;;;;20.89;31.05;99716.41;5114277;28;698;-73
2022/02/06 03:51:32;;;;;;;;;;;;;;;22.14;28.57;99714.25;5113954;28;989;-73
2022/02/06 03:53:58;;;;;;;;;;;;;;;22.09;28.65;99714.06;5112920;28;871;-72
2022/02/06 03:56:26;;;;;;;;;;;;;;;21.80;28.97;99710.88;5113622;28;1285;-71
2022/02/06 03:58:54;;;;;;;;;;;;;;;21.67;28.80;99722.88;5113985;28;1029;-73
2022/02/06 04:01:20;;;;;;;;;;;;;;;21.95;28.64;99713.31;5113826;28;1014;-75
2022/02/06 04:03:46;;;;;;;;;;;;;;;22.97;27.67;99705.78;5114521;28;1988;-73
2022/02/06 04:06:13;;;;;;;;;;;;;;;21.98;28.79;99695.44;5114412;28;1282;-72
2022/02/06 04:08:40;;;;;;;;;;;;;;;22.35;28.88;99701.13;5114388;28;1073;-73
2022/02/06 04:11:11;;;;;;;;;;;;;;;21.11;30.18;99690.44;5112630;28;1025;-73
2022/02/06 04:13:51;;;;;;;;;;;;;;;21.82;29.45;99685.81;5112639;28;851;-72
2022/02/06 04:16:25;;;;;;;;;;;;;;;21.61;29.57;99692.56;5095061;28;1343;-73
2022/02/06 04:19:04;;;;;;;;;;;;;;;23.13;27.79;99687.69;5112550;28;973;-72
2022/02/06 04:21:30;;;;;;;;;;;;;;;21.93;29.19;99684.22;5113459;28;1173;-74
2022/02/06 04:23:57;;;;;;;;;;;;;;;21.98;29.44;99685.28;5113691;28;1983;-72
2022/02/06 04:26:23;;;;;;;;;;;;;;;23.12;27.76;99670.25;5113108;28;1329;-73
2022/02/06 04:28:49;;;;;;;;;;;;;;;21.97;28.80;99660.63;5095389;28;1266;-74
2022/02/06 04:31:15;;;;;;;;;;;;;;;22.57;28.70;99660.06;5113249;28;890;-73
2022/02/06 04:33:43;;;;;;;;;;;;;;;22.51;28.43;99652.69;5112062;28;1002;-73
2022/02/06 04:36:12;;;;;;;;;;;;;;;23.24;27.39;99640.75;5112707;28;1401;-71
2022/02/06 04:38:50;;;;;;;;;;;;;;;23.18;27.84;99651.91;5111966;28;1005;-72
2022/02/06 04:41:33;;;;;;;;;;;;;;;21.95;29.19;99629.63;5111827;28;781;-72
2022/02/06 04:47:50;;;;;;;;;;;;;;;23.01;27.92;99638.69;5111990;28;1332;-73
2022/02/06 04:50:25;;;;;;;;;;;;;;;22.68;28.70;99592.94;5112928;28;1113;-73
2022/02/06 05:15:16;;;;;;;;;;;;;;;21.88;29.45;99600.13;5019954;28;1500;-74
2022/02/06 05:18:13;;;;;;;;;;;;;;;23.12;28.29;99592.78;5083989;28;1187;-74
2022/02/06 05:21:06;;;;;;;;;;;;;;;22.06;29.48;99576.38;5092515;28;776;-73
2022/02/06 05:24:04;;;;;;;;;;;;;;;22.65;28.80;99565.75;5091795;28;1905;-74
2022/02/06 05:26:43;;;;;;;;;;;;;;;23.21;27.99;99563.72;5091763;28;1381;-75
2022/02/06 05:29:20;;;;;;;;;;;;;;;22.84;28.48;99558.25;5092256;28;922;-72
2022/02/06 05:31:59;;;;;;;;;;;;;;;23.01;28.29;99554.81;5090700;28;954;-73
2022/02/06 05:34:25;;;;;;;;;;;;;;;22.37;28.95;99553.31;5091528;28;819;-72
2022/02/06 05:36:52;;;;;;;;;;;;;;;22.91;28.20;99552.63;5091635;28;1292;-73
2022/02/06 05:39:19;;;;;;;;;;;;;;;23.14;28.59;99538.03;5091937;28;1049;-72
2022/02/06 05:41:46;;;;;;;;;;;;;;;22.64;29.30;99533.63;5091690;28;982;-73
2022/02/06 05:44:12;;;;;;;;;;;;;;;23.64;28.01;99544.31;5091374;28;1975;-73
2022/02/06 05:46:38;;;;;;;;;;;;;;;23.08;28.97;99541.75;5090396;28;1416;-73
2022/02/06 05:49:09;;;;;;;;;;;;;;;23.12;28.64;99531.88;5090528;28;1073;-74
2022/02/06 05:51:35;;;;;;;;;;;;;;;23.33;27.43;99529.66;5090510;28;1003;-73
2022/02/06 05:54:02;;;;;;;;;;;;;;;22.90;29.06;99531.56;5091279;28;963;-73
2022/02/06 05:56:29;;;;;;;;;;;;;;;22.98;29.07;99522.97;5090970;28;1424;-73
2022/02/06 05:58:55;;;;;;;;;;;;;;;23.26;27.87;99520.63;5090245;28;998;-72
2022/02/06 06:01:22;;;;;;;;;;;;;;;22.14;29.84;99509.78;5091347;28;768;-73
2022/02/06 06:03:50;;;;;;;;;;;;;;;23.14;29.05;99515.06;5091333;28;1914;-73
2022/02/06 06:06:16;;;;;;;;;;;;;;;22.39;29.54;99520.78;5099967;22;3459;-74
2022/02/06 06:08:42;;;;;;;;;;;;;;;22.08;30.14;99499.63;5069782;28;986;-74
2022/02/06 06:11:09;;;;;;;;;;;;;;;23.56;28.46;99512.25;5069597;28;907;-73
2022/02/06 06:13:36;;;;;;;;;;;;;;;23.18;28.72;99508.84;5070817;28;859;-75
2022/02/06 06:16:04;;;;;;;;;;;;;;;23.64;27.82;99502.75;5066392;28;2284;-74
2022/02/06 06:18:30;;;;;;;;;;;;;;;22.80;29.02;99496.19;5068311;28;1736;-73
2022/02/06 06:20:57;;;;;;;;;;;;;;;21.54;31.33;99504.88;5070597;28;1249;-75
2022/02/06 06:23:24;;;;;;;;;;;;;;;22.73;29.75;99506.50;5056747;28;1918;-76
2022/02/06 06:25:51;;;;;;;;;;;;;;;22.69;28.96;99480.41;5049272;28;1259;-75
2022/02/06 06:28:18;;;;;;;;;;;;;;;23.70;28.54;99493.47;5050776;28;999;-75
2022/02/06 06:30:46;;;;;;;;;;;;;;;23.15;29.46;99489.09;5061339;28;1493;-75
2022/02/06 06:33:14;;;;;;;;;;;;;;;23.31;28.74;99485.63;5032732;28;857;-76
2022/02/06 06:35:40;;;;;;;;;;;;;;;21.81;30.83;99485.28;5049131;28;1401;-73
2022/02/06 06:38:07;;;;;;;;;;;;;;;21.71;30.27;99466.47;5049575;28;846;-76
2022/02/06 06:40:33;;;;;;;;;;;;;;;21.82;30.54;99475.91;5050776;28;777;-74
2022/02/06 06:42:59;;;;;;;;;;;;;;;22.10;30.04;99464.34;5056929;28;1989;-76
2022/02/06 06:45:26;;;;;;;;;;;;;;;22.99;29.55;99466.53;5066310;28;1452;-77
2022/02/06 06:47:54;;;;;;;;;;;;;;;23.01;29.14;99463.50;5061509;28;1246;-76
2022/02/06 06:50:21;;;;;;;;;;;;;;;22.52;29.28;99460.84;5064262;28;1341;-73
2022/02/06 06:52:47;;;;;;;;;;;;;;;22.69;30.14;99469.34;5054187;28;2095;-76
2022/02/06 06:55:16;;;;;;;;;;;;;;;23.51;28.69;99462.28;5085436;28;1505;-75
2022/02/06 06:57:50;;;;;;;;;;;;;;;23.30;29.41;99460.94;5070063;28;1512;-76
2022/02/06 07:00:38;;;;;;;;;;;;;;;23.82;28.95;99458.28;5065180;28;1529;-75
2022/02/06 07:03:05;;;;;;;;;;;;;;;22.60;30.45;99465.22;5067408;28;1914;-73
2022/02/06 07:05:31;;;;;;;;;;;;;;;24.60;27.65;99444.13;5066403;28;1502;-75
2022/02/06 07:07:58;;;;;;;;;;;;;;;23.49;29.10;99448.69;5068207;28;934;-74
2022/02/06 07:10:24;;;;;;;;;;;;;;;24.59;27.36;99447.97;5071626;28;1539;-75
2022/02/06 07:12:50;;;;;;;;;;;;;;;23.36;29.24;99443.41;5071896;28;923;-75
2022/02/06 07:15:17;;;;;;;;;;;;;;;23.50;28.63;99442.03;5071799;28;1449;-73
2022/02/06 07:17:43;;;;;;;;;;;;;;;23.10;29.91;99447.41;5062291;28;1340;-76
2022/02/06 07:20:11;;;;;;;;;;;;;;;23.08;29.30;99447.66;5064230;28;1354;-74
2022/02/06 07:22:39;;;;;;;;;;;;;;;23.12;29.14;99434.19;5062245;28;1991;-73
2022/02/06 07:25:06;;;;;;;;;;;;;;;22.86;29.57;99419.69;5063545;28;1250;-75
2022/02/06 07:27:35;;;;;;;;;;;;;;;24.03;28.86;99426.34;5062999;28;1903;-75
2022/02/06 07:30:04;;;;;;;;;;;;;;;23.14;29.58;99423.75;5058910;28;1306;-73
2022/02/06 07:32:33;;;;;;;;;;;;;;;23.89;29.31;99422.16;5088632;28;1596;-75
2022/02/06 07:35:00;;;;;;;;;;;;;;;23.59;29.15;99419.56;5071854;28;1237;-75
2022/02/06 07:37:27;;;;;;;;;;;;;;;22.13;30.78;99419.66;5073049;28;1571;-75
2022/02/06 07:39:54;;;;;;;;;;;;;;;22.96;30.15;99413.59;5089225;28;795;-73
2022/02/06 07:42:20;;;;;;;;;;;;;;;21.77;31.04;99399.28;5073125;28;1524;-75
2022/02/06 07:44:51;;;;;;;;;;;;;;;22.74;30.47;99401.16;5055259;28;1987;-75
2022/02/06 07:47:18;;;;;;;;;;;;;;;23.84;29.28;99394.34;5072901;28;1461;-73
2022/02/06 07:49:47;;;;;;;;;;;;;;;22.62;30.46;99392.00;5073310;28;792;-74
2022/02/06 07:52:13;;;;;;;;;;;;;;;24.06;28.95;99383.47;5070412;28;1551;-73
2022/02/06 07:54:41;;;;;;;;;;;;;;;24.24;28.60;99401.84;5054051;28;990;-76
2022/02/06 07:57:07;;;;;;;;;;;;;;;22.72;30.33;99386.72;5055491;28;1481;-77
2022/02/06 07:59:34;;;;;;;;;;;;;;;24.34;28.39;99385.38;5066808;28;1615;-76
2022/02/06 08:02:00;;;;;;;;;;;;;;;23.19;29.98;99385.97;5064105;28;1516;-76
2022/02/06 08:04:28;;;;;;;;;;;;;;;23.05;30.01;99384.50;5070372;28;1914;-76
2022/02/06 08:06:54;;;;;;;;;;;;;;;23.67;29.42;99380.41;5085454;28;1634;-76
2022/02/06 08:09:31;;;;;;;;;;;;;;;23.26;29.14;99387.78;5070514;28;1460;-75
2022/02/06 08:11:58;;;;;;;;;;;;;;;23.93;28.72;99378.19;5071351;28;1457;-76
2022/02/06 08:17:08;;;;;;;;;;;;;;;23.69;29.35;99373.53;5060634;28;1493;-75
2022/02/06 08:19:35;;;;;;;;;;;;;;;22.74;30.56;99367.13;5061075;28;1465;-76
2022/02/06 08:22:01;;;;;;;;;;;;;;;21.94;31.31;99368.25;5050705;28;835;-74
2022/02/06 08:24:27;;;;;;;;;;;;;;;24.35;28.46;99359.34;5064808;28;1913;-76
2022/02/06 08:26:54;;;;;;;;;;;;;;;23.23;29.64;99342.88;5066599;28;1459;-77
2022/02/06 08:29:21;;;;;;;;;;;;;;;24.27;28.31;99361.69;5070515;28;1008;-77
2022/02/06 08:31:48;;;;;;;;;;;;;;;24.35;27.97;99344.66;5061347;28;1484;-75
2022/02/06 08:34:14;;;;;;;;;;;;;;;22.43;30.87;99349.75;5059357;28;1287;-74
2022/02/06 08:36:40;;;;;;;;;;;;;;;25.06;28.11;99349.75;5065782;28;1572;-75
2022/02/06 08:39:06;;;;;;;;;;;;;;;23.83;28.94;99338.09;5045237;28;1276;-76
2022/02/06 08:41:33;;;;;;;;;;;;;;;23.56;29.23;99340.56;5068384;28;1187;-75
2022/02/06 08:43:59;;;;;;;;;;;;;;;24.78;27.87;99336.84;5068497;28;1971;-75
2022/02/06 08:46:27;;;;;;;;;;;;;;;23.13;29.49;99323.28;5068504;28;1477;-78
2022/02/06 08:48:53;;;;;;;;;;;;;;;24.45;28.16;99330.13;5068984;28;1382;-75
2022/02/06 08:51:19;;;;;;;;;;;;;;;23.88;29.03;99329.88;5069092;28;1522;-75
2022/02/06 08:53:46;;;;;;;;;;;;;;;24.70;27.76;99325.03;5071136;28;1489;-76
2022/02/06 08:56:12;;;;;;;;;;;;;;;23.55;29.13;99336.94;5071461;28;1418;-75
2022/02/06 08:58:38;;;;;;;;;;;;;;;23.70;29.41;99325.38;5071245;28;1649;-76
2022/02/06 09:01:04;;;;;;;;;;;;;;;23.54;29.54;99315.91;5087014;28;1571;-75
2022/02/06 09:03:32;;;;;;;;;;;;;;;23.92;29.01;99323.88;5070400;28;1910;-76
2022/02/06 09:05:58;;;;;;;;;;;;;;;23.99;29.16;99305.19;5071540;28;1317;-74
2022/02/06 09:08:25;;;;;;;;;;;;;;;23.39;29.17;99305.31;5071957;28;1512;-74
2022/02/06 09:10:51;;;;;;;;;;;;;;;24.04;29.55;99308.88;5065796;28;1489;-74
2022/02/06 09:13:18;;;;;;;;;;;;;;;24.23;29.16;99303.97;5071297;28;1494;-77
2022/02/06 09:15:45;;;;;;;;;;;;;;;23.89;29.42;99301.13;5070474;28;1312;-75
2022/02/06 09:18:11;;;;;;;;;;;;;;;24.53;28.58;99304.75;5070869;28;1495;-76
2022/02/06 09:20:39;;;;;;;;;;;;;;;24.58;28.42;99305.66;5071213;28;1543;-74
2022/02/06 09:23:05;;;;;;;;;;;;;;;24.98;27.93;99295.53;5072282;28;714;-74
2022/02/06 09:25:31;;;;;;;;;;;;;;;24.57;28.10;99298.47;5071306;28;1975;-76
2022/02/06 09:27:58;;;;;;;;;;;;;;;23.30;30.66;99292.94;5071295;28;1469;-77
2022/02/06 09:30:26;;;;;;;;;;;;;;;23.95;29.43;99284.59;5070587;28;1528;-76
2022/02/06 09:35:18;;;;;;;;;;;;;;;23.22;30.15;99318.22;5070670;28;1332;-77
2022/02/06 09:37:46;;;;;;;;;;;;;;;23.42;30.67;99284.59;5070955;28;792;-76
2022/02/06 09:40:15;;;;;;;;;;;;;;;23.23;30.45;99265.38;5070693;28;1678;-76
2022/02/06 09:42:44;;;;;;;;;;;;;;;23.98;29.14;99259.16;5070851;28;1496;-76
2022/02/06 09:45:11;;;;;;;;;;;;;;;24.08;29.01;99259.34;5070932;28;1910;-75
2022/02/06 09:47:53;;;;;;;;;;;;;;;24.79;28.95;99253.34;5071133;28;1514;-76
2022/02/06 09:50:19;;;;;;;;;;;;;;;24.65;28.06;99258.41;5070997;28;808;-77
2022/02/06 09:52:47;;;;;;;;;;;;;;;24.30;28.60;99250.31;5069593;28;1482;-74
2022/02/06 09:55:17;;;;;;;;;;;;;;;23.76;29.87;99248.75;5069119;28;1494;-74
2022/02/06 09:57:53;;;;;;;;;;;;;;;24.85;28.51;99244.00;5068181;28;1480;-75
2022/02/06 10:00:19;;;;;;;;;;;;;;;24.01;29.69;99253.09;5069489;28;979;-74
2022/02/06 10:02:47;;;;;;;;;;;;;;;22.39;31.11;99227.78;5070921;28;780;-74
2022/02/06 10:05:14;;;;;;;;;;;;;;;22.46;31.48;99226.78;5069099;28;1985;-73
2022/02/06 10:07:43;;;;;;;;;;;;;;;23.98;29.48;99237.00;5070685;28;1325;-74
2022/02/06 10:10:14;;;;;;;;;;;;;;;24.23;29.49;99218.03;5070805;28;1061;-73
2022/02/06 10:12:42;;;;;;;;;;;;;;;24.36;29.43;99221.59;5069619;28;955;-75
2022/02/06 10:15:11;;;;;;;;;;;;;;;25.69;27.91;99216.22;5070176;28;796;-76
2022/02/06 10:17:37;;;;;;;;;;;;;;;26.19;27.16;99200.31;5070596;28;1351;-73
2022/02/06 10:20:11;;;;;;;;;;;;;;;24.08;28.54;99206.69;5069267;28;1155;-73
2022/02/06 10:22:42;;;;;;;;;;;;;;;24.00;29.37;99194.09;5070217;28;1460;-73
2022/02/06 10:25:09;;;;;;;;;;;;;;;24.53;28.62;99196.59;5070012;28;2025;-75
2022/02/06 10:28:00;;;;;;;;;;;;;;;24.95;28.14;99195.28;5070468;28;1325;-75
2022/02/06 10:30:37;;;;;;;;;;;;;;;24.71;28.42;99184.44;5070638;28;911;-75
2022/02/06 10:33:04;;;;;;;;;;;;;;;23.67;30.92;99183.75;5070332;28;1512;-73
2022/02/06 10:35:34;;;;;;;;;;;;;;;24.38;29.80;99166.69;5058332;28;1407;-76
2022/02/06 10:38:03;;;;;;;;;;;;;;;24.65;28.68;99169.66;5050482;28;1021;-74
2022/02/06 10:40:29;;;;;;;;;;;;;;;23.89;29.45;99162.59;5050576;28;962;-74
2022/02/06 10:42:56;;;;;;;;;;;;;;;25.19;28.21;99155.06;5053841;28;1318;-75
2022/02/06 10:45:25;;;;;;;;;;;;;;;24.77;27.99;99150.09;5069404;28;1974;-73
2022/02/06 10:47:52;;;;;;;;;;;;;;;26.19;26.98;99142.78;5073333;28;1647;-77
2022/02/06 10:50:20;;;;;;;;;;;;;;;25.74;26.97;99119.03;5089155;28;698;-76
2022/02/06 10:52:47;;;;;;;;;;;;;;;23.46;30.25;99119.69;5074147;28;1677;-73
2022/02/06 10:55:15;;;;;;;;;;;;;;;25.95;27.25;99122.81;5073035;28;915;-76
2022/02/06 10:57:54;;;;;;;;;;;;;;;25.09;28.15;99113.31;5074676;28;990;-76
2022/02/06 11:00:25;;;;;;;;;;;;;;;25.14;27.41;99115.31;5074665;28;879;-77
2022/02/06 11:02:59;;;;;;;;;;;;;;;24.63;28.61;99109.97;5074285;28;1516;-76
2022/02/06 11:05:34;;;;;;;;;;;;;;;24.38;28.81;99094.63;5072897;28;1977;-77
2022/02/06 11:08:01;;;;;;;;;;;;;;;25.93;27.05;99096.41;5074361;28;1057;-76
2022/02/06 11:10:30;;;;;;;;;;;;;;;25.86;26.82;99083.56;5072972;28;1235;-76
2022/02/06 11:12:57;;;;;;;;;;;;;;;25.40;27.52;99075.66;5074078;28;1547;-74
2022/02/06 11:15:28;;;;;;;;;;;;;;;26.55;25.93;99067.91;5072865;28;2016;-77
2022/02/06 11:18:09;;;;;;;;;;;;;;;25.34;27.17;99070.31;5073630;28;776;-75
2022/02/06 11:20:36;;;;;;;;;;;;;;;25.24;27.24;99055.19;5073974;28;1447;-73
2022/02/06 11:23:03;;;;;;;;;;;;;;;25.14;27.17;99057.88;5073962;28;1526;-76
2022/02/06 11:25:30;;;;;;;;;;;;;;;24.78;28.06;99074.09;5071500;28;1918;-74
2022/02/06 11:27:57;;;;;;;;;;;;;;;26.28;26.44;99059.69;5070144;28;777;-75
2022/02/06 11:30:23;;;;;;;;;;;;;;;25.08;27.89;99050.59;5061086;28;1437;-75
2022/02/06 11:32:51;;;;;;;;;;;;;;;26.39;26.24;99049.50;5072280;28;821;-74
2022/02/06 11:35:21;;;;;;;;;;;;;;;24.50;28.22;99045.41;5070469;28;1496;-75
2022/02/06 11:43:49;;;;;;;;;;;;;;;24.05;28.05;99015.97;5071942;28;966;-78
2022/02/06 11:46:18;;;;;;;;;;;;;;;26.31;26.19;98999.91;5061460;28;1917;-76
2022/02/06 11:48:47;;;;;;;;;;;;;;;26.65;25.48;98997.56;5071939;28;1038;-77
2022/02/06 11:51:18;;;;;;;;;;;;;;;25.55;25.91;98976.94;5070163;28;1457;-77
2022/02/06 11:53:44;;;;;;;;;;;;;;;27.04;25.15;98977.66;5071798;28;1006;-75
2022/02/06 11:56:21;;;;;;;;;;;;;;;26.56;25.40;98972.22;5059521;28;1523;-78
2022/02/06 11:58:48;;;;;;;;;;;;;;;25.75;26.43;98970.69;5052963;28;1461;-77
2022/02/06 12:01:24;;;;;;;;;;;;;;;26.25;25.45;98967.66;5070626;28;1497;-76
2022/02/06 12:03:53;;;;;;;;;;;;;;;25.54;26.67;98955.81;5071232;28;1520;-76
2022/02/06 12:06:20;;;;;;;;;;;;;;;24.73;27.14;98946.44;5087244;22;3534;-76
2022/02/06 12:09:01;;;;;;;;;;;;;;;25.30;26.66;98942.25;5050079;28;1687;-78
2022/02/06 12:11:28;;;;;;;;;;;;;;;25.69;26.20;98939.22;5066100;28;1354;-79
2022/02/06 12:14:07;;;;;;;;;;;;;;;25.95;26.04;98925.50;5055052;28;1377;-78
2022/02/06 12:16:40;;;;;;;;;;;;;;;26.16;25.51;98920.91;5052611;28;1495;-76
2022/02/06 12:19:21;;;;;;;;;;;;;;;25.37;26.63;98909.59;5052756;28;1383;-76
2022/02/06 12:21:49;;;;;;;;;;;;;;;26.16;26.16;98922.84;5048938;28;2429;-77
2022/02/06 12:24:35;;;;;;;;;;;;;;;26.36;25.61;98905.41;5045874;28;1975;-76
2022/02/06 12:27:16;;;;;;;;;;;;;;;25.78;26.35;98909.00;5043723;28;1356;-77
2022/02/06 12:29:44;;;;;;;;;;;;;;;27.09;25.26;98878.56;5036110;28;1522;-76
2022/02/06 12:32:28;;;;;;;;;;;;;;;25.85;26.52;98878.19;5035127;28;1162;-76
2022/02/06 12:37:41;;;;;;;;;;;;;;;26.02;26.74;98864.13;5034857;28;1335;-78
2022/02/06 12:40:08;;;;;;;;;;;;;;;25.61;26.94;98858.34;5032161;28;1255;-77
2022/02/06 12:42:38;;;;;;;;;;;;;;;25.50;27.18;98843.56;5033158;28;951;-77
2022/02/06 12:45:05;;;;;;;;;;;;;;;26.47;26.26;98837.59;5033421;28;1977;-78
2022/02/06 12:47:32;;;;;;;;;;;;;;;26.56;25.70;98830.38;5034795;28;1281;-77
2022/02/06 12:49:58;;;;;;;;;;;;;;;25.59;27.01;98816.09;5040893;28;1235;-77
2022/02/06 12:52:25;;;;;;;;;;;;;;;26.02;26.58;98817.69;5015520;28;1256;-77
2022/02/06 12:54:52;;;;;;;;;;;;;;;25.50;27.23;98802.75;5032248;28;1011;-76
2022/02/06 12:57:20;;;;;;;;;;;;;;;25.33;27.64;98800.09;5033703;28;1331;-77
2022/02/06 12:59:47;;;;;;;;;;;;;;;24.76;28.39;98792.50;5032658;28;983;-78
2022/02/06 13:02:15;;;;;;;;;;;;;;;25.43;27.78;98774.41;5032642;28;1069;-78
2022/02/06 13:04:43;;;;;;;;;;;;;;;25.18;27.96;98770.31;5031643;28;1910;-79
2022/02/06 13:07:11;;;;;;;;;;;;;;;26.78;26.24;98770.84;5031436;28;1393;-77
2022/02/06 13:09:41;;;;;;;;;;;;;;;25.42;27.43;98753.28;5031012;28;813;-78
2022/02/06 13:12:17;;;;;;;;;;;;;;;25.68;27.03;98742.25;5041302;28;1517;-74
2022/02/06 13:14:56;;;;;;;;;;;;;;;25.86;26.96;98754.84;5051642;28;978;-77
2022/02/06 13:17:36;;;;;;;;;;;;;;;26.06;26.68;98726.28;5051617;28;1688;-76
2022/02/06 13:20:14;;;;;;;;;;;;;;;25.40;27.76;98725.78;5051490;28;924;-76
2022/02/06 13:22:51;;;;;;;;;;;;;;;24.85;28.30;98714.09;5050880;28;1555;-76
2022/02/06 13:25:49;;;;;;;;;;;;;;;26.46;26.84;98696.03;5050971;28;1973;-76
2022/02/06 13:28:23;;;;;;;;;;;;;;;24.63;28.05;98688.41;5049478;28;1300;-77
2022/02/06 13:31:07;;;;;;;;;;;;;;;26.14;26.58;98686.81;5051648;28;1579;-77
2022/02/06 13:33:44;;;;;;;;;;;;;;;24.50;28.67;98673.03;5053337;28;1505;-78
2022/02/06 13:36:20;;;;;;;;;;;;;;;24.90;27.86;98668.88;5054577;28;1498;-78
2022/02/06 13:38:52;;;;;;;;;;;;;;;25.37;27.47;98647.75;5040433;28;1387;-78
2022/02/06 13:41:22;;;;;;;;;;;;;;;25.13;27.75;98647.34;5061164;28;1097;-78
2022/02/06 13:43:52;;;;;;;;;;;;;;;24.95;27.36;98643.09;5059324;28;1512;-78
2022/02/06 13:46:22;;;;;;;;;;;;;;;25.10;27.93;98620.16;5057866;28;1903;-78
2022/02/06 13:48:49;;;;;;;;;;;;;;;24.82;28.34;98623.06;5040960;28;1362;-78
2022/02/06 13:51:15;;;;;;;;;;;;;;;24.35;28.15;98629.41;5055495;28;1390;-78
2022/02/06 13:53:53;;;;;;;;;;;;;;;25.11;28.19;98600.44;5056715;28;982;-77
2022/02/06 13:56:19;;;;;;;;;;;;;;;24.48;28.62;98600.38;5054845;28;1419;-78
2022/02/06 13:58:58;;;;;;;;;;;;;;;24.05;29.45;98594.78;5058385;28;1161;-76
2022/02/06 14:01:36;;;;;;;;;;;;;;;26.06;27.10;98584.53;5055264;28;1545;-77
2022/02/06 14:04:02;;;;;;;;;;;;;;;25.53;27.12;98577.25;5055789;28;753;-78
2022/02/06 14:06:36;;;;;;;;;;;;;;;24.61;28.90;98574.94;5055738;28;1914;-77
2022/02/06 14:09:10;;;;;;;;;;;;;;;25.79;27.36;98568.94;5056491;28;1501;-78
2022/02/06 14:11:37;;;;;;;;;;;;;;;24.55;28.85;98553.84;5056440;28;1501;-77
2022/02/06 14:14:21;;;;;;;;;;;;;;;24.29;29.09;98567.56;5057101;28;1358;-77
2022/02/06 14:16:48;;;;;;;;;;;;;;;24.00;29.24;98556.00;5055402;28;1351;-77
2022/02/06 14:19:15;;;;;;;;;;;;;;;23.10;30.01;98546.22;5037691;28;923;-75
2022/02/06 14:21:44;;;;;;;;;;;;;;;24.45;29.44;98532.41;5047693;28;1620;-79
2022/02/06 14:24:10;;;;;;;;;;;;;;;24.74;28.63;98519.00;5049332;28;1254;-75
2022/02/06 14:26:36;;;;;;;;;;;;;;;26.00;26.91;98530.03;5048056;28;1985;-75
2022/02/06 14:29:03;;;;;;;;;;;;;;;26.08;26.98;98521.16;5048461;28;1445;-75